sensor_id;sensor_type;location;lat;lon;timestamp;P1;durP1;ratioP1;P2;durP2;ratioP2
66587;SDS011;53446;50.076;8.198;2022-09-13T00:00:22;7.33;;;4.00;;
66587;SDS011;53446;50.076;8.198;2022-09-13T00:02:22;8.37;;;4.43;;
66587;SDS011;53446;50.076;8.198;2022-09-13T00:04:22;7.43;;;4.20;;
66587;SDS011;53446;50.076;8.198;2022-09-13T00:06:23;8.73;;;4.05;;
66587;SDS011;53446;50.076;8.198;2022-09-13T00:08:23;7.53;;;3.97;;
66587;SDS011;53446;50.076;8.198;2022-09-13T00:10:24;6.77;;;3.83;;
66587;SDS011;53446;50.076;8.198;2022-09-13T00:12:25;7.60;;;4.10;;
66587;SDS011;53446;50.076;8.198;2022-09-13T00:14:25;10.23;;;4.57;;
66587;SDS011;53446;50.076;8.198;2022-09-13T00:16:26;9.07;;;4.70;;
66587;SDS011;53446;50.076;8.198;2022-09-13T00:18:27;7.22;;;4.40;;
66587;SDS011;53446;50.076;8.198;2022-09-13T00:20:27;6.83;;;3.73;;
66587;SDS011;53446;50.076;8.198;2022-09-13T00:22:28;11.10;;;4.60;;
66587;SDS011;53446;50.076;8.198;2022-09-13T00:24:28;9.90;;;4.50;;
66587;SDS011;53446;50.076;8.198;2022-09-13T00:26:28;7.93;;;4.63;;
66587;SDS011;53446;50.076;8.198;2022-09-13T00:28:29;7.37;;;3.97;;
66587;SDS011;53446;50.076;8.198;2022-09-13T00:30:29;8.77;;;4.13;;
66587;SDS011;53446;50.076;8.198;2022-09-13T00:32:30;8.23;;;4.40;;
66587;SDS011;53446;50.076;8.198;2022-09-13T00:34:30;6.70;;;4.10;;
66587;SDS011;53446;50.076;8.198;2022-09-13T00:36:30;7.33;;;4.20;;
66587;SDS011;53446;50.076;8.198;2022-09-13T00:38:31;8.00;;;4.10;;
66587;SDS011;53446;50.076;8.198;2022-09-13T00:40:35;8.30;;;4.32;;
66587;SDS011;53446;50.076;8.198;2022-09-13T00:42:36;8.00;;;3.97;;
66587;SDS011;53446;50.076;8.198;2022-09-13T00:46:59;8.20;;;4.40;;
66587;SDS011;53446;50.076;8.198;2022-09-13T00:49:02;8.57;;;4.38;;
66587;SDS011;53446;50.076;8.198;2022-09-13T00:51:13;10.40;;;4.40;;
66587;SDS011;53446;50.076;8.198;2022-09-13T00:55:46;9.13;;;4.57;;
66587;SDS011;53446;50.076;8.198;2022-09-13T00:57:50;10.15;;;4.40;;
66587;SDS011;53446;50.076;8.198;2022-09-13T01:01:54;8.70;;;4.68;;
66587;SDS011;53446;50.076;8.198;2022-09-13T01:03:55;7.43;;;4.30;;
66587;SDS011;53446;50.076;8.198;2022-09-13T01:06:00;13.00;;;4.93;;
66587;SDS011;53446;50.076;8.198;2022-09-13T01:08:04;8.75;;;4.53;;
66587;SDS011;53446;50.076;8.198;2022-09-13T01:10:09;11.77;;;4.80;;
66587;SDS011;53446;50.076;8.198;2022-09-13T01:12:28;11.13;;;4.65;;
66587;SDS011;53446;50.076;8.198;2022-09-13T01:14:33;8.43;;;4.40;;
66587;SDS011;53446;50.076;8.198;2022-09-13T01:16:33;8.20;;;4.13;;
66587;SDS011;53446;50.076;8.198;2022-09-13T01:18:34;8.43;;;4.20;;
66587;SDS011;53446;50.076;8.198;2022-09-13T01:30:47;10.60;;;4.95;;
66587;SDS011;53446;50.076;8.198;2022-09-13T01:35:12;11.63;;;4.97;;
66587;SDS011;53446;50.076;8.198;2022-09-13T01:37:25;10.23;;;5.00;;
66587;SDS011;53446;50.076;8.198;2022-09-13T01:44:42;9.65;;;4.60;;
66587;SDS011;53446;50.076;8.198;2022-09-13T01:46:56;8.90;;;4.97;;
66587;SDS011;53446;50.076;8.198;2022-09-13T01:49:18;7.38;;;4.15;;
66587;SDS011;53446;50.076;8.198;2022-09-13T01:51:34;9.68;;;4.40;;
66587;SDS011;53446;50.076;8.198;2022-09-13T01:53:57;8.73;;;4.40;;
66587;SDS011;53446;50.076;8.198;2022-09-13T01:56:05;6.95;;;3.80;;
66587;SDS011;53446;50.076;8.198;2022-09-13T02:00:22;8.23;;;4.30;;
66587;SDS011;53446;50.076;8.198;2022-09-13T02:02:27;8.00;;;4.40;;
66587;SDS011;53446;50.076;8.198;2022-09-13T02:04:34;8.95;;;4.53;;
66587;SDS011;53446;50.076;8.198;2022-09-13T02:06:51;7.47;;;4.47;;
66587;SDS011;53446;50.076;8.198;2022-09-13T02:08:57;9.23;;;4.28;;
66587;SDS011;53446;50.076;8.198;2022-09-13T02:11:03;9.43;;;4.60;;
66587;SDS011;53446;50.076;8.198;2022-09-13T02:13:14;7.93;;;3.97;;
66587;SDS011;53446;50.076;8.198;2022-09-13T02:15:24;8.60;;;4.43;;
66587;SDS011;53446;50.076;8.198;2022-09-13T02:17:31;7.25;;;3.97;;
66587;SDS011;53446;50.076;8.198;2022-09-13T02:19:47;9.32;;;3.72;;
66587;SDS011;53446;50.076;8.198;2022-09-13T02:21:51;7.80;;;4.22;;
66587;SDS011;53446;50.076;8.198;2022-09-13T02:24:07;8.98;;;4.50;;
66587;SDS011;53446;50.076;8.198;2022-09-13T02:26:11;8.65;;;4.63;;
66587;SDS011;53446;50.076;8.198;2022-09-13T02:28:13;9.38;;;4.55;;
66587;SDS011;53446;50.076;8.198;2022-09-13T02:30:15;7.53;;;3.95;;
66587;SDS011;53446;50.076;8.198;2022-09-13T02:32:27;10.00;;;3.67;;
66587;SDS011;53446;50.076;8.198;2022-09-13T02:34:35;10.13;;;4.03;;
66587;SDS011;53446;50.076;8.198;2022-09-13T02:36:38;8.38;;;4.03;;
66587;SDS011;53446;50.076;8.198;2022-09-13T02:38:52;9.40;;;4.30;;
66587;SDS011;53446;50.076;8.198;2022-09-13T02:41:06;6.97;;;3.75;;
66587;SDS011;53446;50.076;8.198;2022-09-13T02:43:26;7.63;;;4.22;;
66587;SDS011;53446;50.076;8.198;2022-09-13T02:45:32;10.98;;;5.20;;
66587;SDS011;53446;50.076;8.198;2022-09-13T02:47:41;9.50;;;4.28;;
66587;SDS011;53446;50.076;8.198;2022-09-13T02:50:07;10.15;;;4.75;;
66587;SDS011;53446;50.076;8.198;2022-09-13T02:54:42;7.82;;;4.03;;
66587;SDS011;53446;50.076;8.198;2022-09-13T02:57:17;10.23;;;3.92;;
66587;SDS011;53446;50.076;8.198;2022-09-13T02:59:21;7.90;;;3.80;;
66587;SDS011;53446;50.076;8.198;2022-09-13T03:01:22;9.10;;;3.85;;
66587;SDS011;53446;50.076;8.198;2022-09-13T03:03:23;7.32;;;3.90;;
66587;SDS011;53446;50.076;8.198;2022-09-13T03:05:24;7.68;;;3.72;;
66587;SDS011;53446;50.076;8.198;2022-09-13T03:07:24;7.22;;;3.60;;
66587;SDS011;53446;50.076;8.198;2022-09-13T03:09:25;7.30;;;3.97;;
66587;SDS011;53446;50.076;8.198;2022-09-13T03:11:33;9.10;;;3.97;;
66587;SDS011;53446;50.076;8.198;2022-09-13T03:14:04;7.17;;;3.90;;
66587;SDS011;53446;50.076;8.198;2022-09-13T03:16:17;8.30;;;4.00;;
66587;SDS011;53446;50.076;8.198;2022-09-13T03:25:58;8.90;;;4.53;;
66587;SDS011;53446;50.076;8.198;2022-09-13T03:30:25;8.50;;;4.20;;
66587;SDS011;53446;50.076;8.198;2022-09-13T03:36:45;7.13;;;3.85;;
66587;SDS011;53446;50.076;8.198;2022-09-13T03:38:54;6.88;;;3.95;;
66587;SDS011;53446;50.076;8.198;2022-09-13T03:40:59;8.63;;;3.95;;
66587;SDS011;53446;50.076;8.198;2022-09-13T03:43:05;7.37;;;3.80;;
66587;SDS011;53446;50.076;8.198;2022-09-13T03:45:10;7.75;;;4.20;;
66587;SDS011;53446;50.076;8.198;2022-09-13T03:47:11;8.52;;;4.00;;
66587;SDS011;53446;50.076;8.198;2022-09-13T03:49:14;9.55;;;3.83;;
66587;SDS011;53446;50.076;8.198;2022-09-13T03:51:15;7.00;;;3.95;;
66587;SDS011;53446;50.076;8.198;2022-09-13T03:53:18;8.73;;;4.23;;
66587;SDS011;53446;50.076;8.198;2022-09-13T03:55:20;12.43;;;4.10;;
66587;SDS011;53446;50.076;8.198;2022-09-13T03:57:21;7.30;;;3.77;;
66587;SDS011;53446;50.076;8.198;2022-09-13T03:59:21;8.02;;;4.10;;
66587;SDS011;53446;50.076;8.198;2022-09-13T04:01:22;8.90;;;5.18;;
66587;SDS011;53446;50.076;8.198;2022-09-13T04:03:23;9.13;;;5.10;;
66587;SDS011;53446;50.076;8.198;2022-09-13T04:05:23;17.20;;;9.38;;
66587;SDS011;53446;50.076;8.198;2022-09-13T04:07:24;12.53;;;6.70;;
66587;SDS011;53446;50.076;8.198;2022-09-13T04:09:24;12.03;;;6.43;;
66587;SDS011;53446;50.076;8.198;2022-09-13T04:11:24;11.83;;;5.23;;
66587;SDS011;53446;50.076;8.198;2022-09-13T04:13:25;8.23;;;4.70;;
66587;SDS011;53446;50.076;8.198;2022-09-13T04:15:26;8.00;;;4.50;;
66587;SDS011;53446;50.076;8.198;2022-09-13T04:17:27;8.23;;;4.25;;
66587;SDS011;53446;50.076;8.198;2022-09-13T04:19:27;8.90;;;4.40;;
66587;SDS011;53446;50.076;8.198;2022-09-13T04:21:27;9.07;;;4.03;;
66587;SDS011;53446;50.076;8.198;2022-09-13T04:23:28;7.43;;;4.20;;
66587;SDS011;53446;50.076;8.198;2022-09-13T04:25:29;8.10;;;4.38;;
66587;SDS011;53446;50.076;8.198;2022-09-13T04:27:29;8.33;;;4.27;;
66587;SDS011;53446;50.076;8.198;2022-09-13T04:29:29;9.57;;;4.33;;
66587;SDS011;53446;50.076;8.198;2022-09-13T04:31:31;10.05;;;4.88;;
66587;SDS011;53446;50.076;8.198;2022-09-13T04:33:32;7.53;;;4.20;;
66587;SDS011;53446;50.076;8.198;2022-09-13T04:35:32;8.83;;;4.57;;
66587;SDS011;53446;50.076;8.198;2022-09-13T04:37:32;8.30;;;4.33;;
66587;SDS011;53446;50.076;8.198;2022-09-13T04:39:33;8.73;;;4.70;;
66587;SDS011;53446;50.076;8.198;2022-09-13T04:41:33;7.97;;;4.50;;
66587;SDS011;53446;50.076;8.198;2022-09-13T04:43:33;7.25;;;4.38;;
66587;SDS011;53446;50.076;8.198;2022-09-13T04:45:33;8.52;;;4.03;;
66587;SDS011;53446;50.076;8.198;2022-09-13T04:47:34;9.33;;;4.27;;
66587;SDS011;53446;50.076;8.198;2022-09-13T04:49:34;11.17;;;4.30;;
66587;SDS011;53446;50.076;8.198;2022-09-13T04:51:34;7.40;;;3.73;;
66587;SDS011;53446;50.076;8.198;2022-09-13T04:53:35;8.20;;;4.50;;
66587;SDS011;53446;50.076;8.198;2022-09-13T04:55:36;9.23;;;4.40;;
66587;SDS011;53446;50.076;8.198;2022-09-13T04:57:36;7.63;;;4.37;;
66587;SDS011;53446;50.076;8.198;2022-09-13T04:59:37;10.37;;;5.50;;
66587;SDS011;53446;50.076;8.198;2022-09-13T05:01:37;9.48;;;4.82;;
66587;SDS011;53446;50.076;8.198;2022-09-13T05:03:37;8.97;;;4.70;;
66587;SDS011;53446;50.076;8.198;2022-09-13T05:05:38;8.60;;;4.20;;
66587;SDS011;53446;50.076;8.198;2022-09-13T05:07:38;8.43;;;4.70;;
66587;SDS011;53446;50.076;8.198;2022-09-13T05:09:38;7.30;;;3.87;;
66587;SDS011;53446;50.076;8.198;2022-09-13T05:11:39;8.43;;;4.50;;
66587;SDS011;53446;50.076;8.198;2022-09-13T05:13:39;9.10;;;4.45;;
66587;SDS011;53446;50.076;8.198;2022-09-13T05:15:40;10.77;;;4.67;;
66587;SDS011;53446;50.076;8.198;2022-09-13T05:17:40;8.97;;;4.03;;
66587;SDS011;53446;50.076;8.198;2022-09-13T05:19:40;7.80;;;3.97;;
66587;SDS011;53446;50.076;8.198;2022-09-13T05:21:40;8.00;;;4.00;;
66587;SDS011;53446;50.076;8.198;2022-09-13T05:23:41;8.67;;;4.90;;
66587;SDS011;53446;50.076;8.198;2022-09-13T05:25:41;8.73;;;4.60;;
66587;SDS011;53446;50.076;8.198;2022-09-13T05:27:44;10.27;;;5.00;;
66587;SDS011;53446;50.076;8.198;2022-09-13T05:29:44;9.93;;;5.28;;
66587;SDS011;53446;50.076;8.198;2022-09-13T05:31:44;9.47;;;4.50;;
66587;SDS011;53446;50.076;8.198;2022-09-13T05:33:46;8.80;;;4.77;;
66587;SDS011;53446;50.076;8.198;2022-09-13T05:35:47;9.23;;;4.18;;
66587;SDS011;53446;50.076;8.198;2022-09-13T05:37:47;8.97;;;4.90;;
66587;SDS011;53446;50.076;8.198;2022-09-13T05:39:48;8.15;;;5.00;;
66587;SDS011;53446;50.076;8.198;2022-09-13T05:41:48;10.20;;;4.60;;
66587;SDS011;53446;50.076;8.198;2022-09-13T05:43:49;9.70;;;4.73;;
66587;SDS011;53446;50.076;8.198;2022-09-13T05:45:49;7.85;;;4.15;;
66587;SDS011;53446;50.076;8.198;2022-09-13T05:47:50;13.85;;;5.30;;
66587;SDS011;53446;50.076;8.198;2022-09-13T05:49:51;9.30;;;5.33;;
66587;SDS011;53446;50.076;8.198;2022-09-13T05:51:51;8.77;;;4.90;;
66587;SDS011;53446;50.076;8.198;2022-09-13T05:53:51;9.13;;;4.90;;
66587;SDS011;53446;50.076;8.198;2022-09-13T05:55:53;9.68;;;4.78;;
66587;SDS011;53446;50.076;8.198;2022-09-13T05:57:54;10.98;;;5.85;;
66587;SDS011;53446;50.076;8.198;2022-09-13T05:59:54;10.53;;;5.40;;
66587;SDS011;53446;50.076;8.198;2022-09-13T06:01:54;11.13;;;5.07;;
66587;SDS011;53446;50.076;8.198;2022-09-13T06:03:55;11.50;;;5.30;;
66587;SDS011;53446;50.076;8.198;2022-09-13T06:05:56;9.15;;;5.05;;
66587;SDS011;53446;50.076;8.198;2022-09-13T06:07:57;11.30;;;4.70;;
66587;SDS011;53446;50.076;8.198;2022-09-13T06:09:57;11.65;;;5.22;;
66587;SDS011;53446;50.076;8.198;2022-09-13T06:11:58;9.27;;;4.53;;
66587;SDS011;53446;50.076;8.198;2022-09-13T06:13:58;9.63;;;5.27;;
66587;SDS011;53446;50.076;8.198;2022-09-13T06:15:59;8.93;;;5.10;;
66587;SDS011;53446;50.076;8.198;2022-09-13T06:18:00;8.73;;;4.70;;
66587;SDS011;53446;50.076;8.198;2022-09-13T06:20:00;9.90;;;4.93;;
66587;SDS011;53446;50.076;8.198;2022-09-13T06:22:01;12.47;;;4.97;;
66587;SDS011;53446;50.076;8.198;2022-09-13T06:24:01;9.13;;;5.20;;
66587;SDS011;53446;50.076;8.198;2022-09-13T06:26:03;14.88;;;6.53;;
66587;SDS011;53446;50.076;8.198;2022-09-13T06:28:05;13.20;;;6.35;;
66587;SDS011;53446;50.076;8.198;2022-09-13T06:30:05;10.30;;;4.93;;
66587;SDS011;53446;50.076;8.198;2022-09-13T06:32:07;9.88;;;5.38;;
66587;SDS011;53446;50.076;8.198;2022-09-13T06:34:09;8.70;;;5.00;;
66587;SDS011;53446;50.076;8.198;2022-09-13T06:36:11;13.57;;;4.88;;
66587;SDS011;53446;50.076;8.198;2022-09-13T06:38:13;12.00;;;5.33;;
66587;SDS011;53446;50.076;8.198;2022-09-13T06:40:13;9.07;;;4.13;;
66587;SDS011;53446;50.076;8.198;2022-09-13T06:42:14;10.00;;;4.70;;
66587;SDS011;53446;50.076;8.198;2022-09-13T06:44:14;10.07;;;4.83;;
66587;SDS011;53446;50.076;8.198;2022-09-13T06:46:15;13.20;;;5.47;;
66587;SDS011;53446;50.076;8.198;2022-09-13T06:48:17;9.55;;;5.10;;
66587;SDS011;53446;50.076;8.198;2022-09-13T06:50:17;9.97;;;4.87;;
66587;SDS011;53446;50.076;8.198;2022-09-13T06:52:17;9.87;;;5.10;;
66587;SDS011;53446;50.076;8.198;2022-09-13T06:54:17;8.93;;;5.23;;
66587;SDS011;53446;50.076;8.198;2022-09-13T06:56:19;7.27;;;4.30;;
66587;SDS011;53446;50.076;8.198;2022-09-13T06:58:20;9.35;;;4.28;;
66587;SDS011;53446;50.076;8.198;2022-09-13T07:00:21;10.73;;;4.93;;
66587;SDS011;53446;50.076;8.198;2022-09-13T07:02:21;8.30;;;4.45;;
66587;SDS011;53446;50.076;8.198;2022-09-13T07:04:23;9.18;;;5.03;;
66587;SDS011;53446;50.076;8.198;2022-09-13T07:06:25;9.43;;;4.40;;
66587;SDS011;53446;50.076;8.198;2022-09-13T07:08:27;9.27;;;5.00;;
66587;SDS011;53446;50.076;8.198;2022-09-13T07:10:27;11.57;;;5.17;;
66587;SDS011;53446;50.076;8.198;2022-09-13T07:12:27;10.47;;;5.30;;
66587;SDS011;53446;50.076;8.198;2022-09-13T07:14:28;10.30;;;5.03;;
66587;SDS011;53446;50.076;8.198;2022-09-13T07:16:29;14.70;;;5.50;;
66587;SDS011;53446;50.076;8.198;2022-09-13T07:18:30;12.20;;;5.03;;
66587;SDS011;53446;50.076;8.198;2022-09-13T07:20:31;12.93;;;6.00;;
66587;SDS011;53446;50.076;8.198;2022-09-13T07:22:31;14.67;;;6.87;;
66587;SDS011;53446;50.076;8.198;2022-09-13T07:24:32;15.03;;;6.40;;
66587;SDS011;53446;50.076;8.198;2022-09-13T07:26:32;12.20;;;6.20;;
66587;SDS011;53446;50.076;8.198;2022-09-13T07:28:37;20.73;;;8.55;;
66587;SDS011;53446;50.076;8.198;2022-09-13T07:30:38;14.52;;;8.05;;
66587;SDS011;53446;50.076;8.198;2022-09-13T07:32:38;16.37;;;8.07;;
66587;SDS011;53446;50.076;8.198;2022-09-13T07:34:38;13.17;;;6.93;;
66587;SDS011;53446;50.076;8.198;2022-09-13T07:36:39;13.87;;;7.07;;
66587;SDS011;53446;50.076;8.198;2022-09-13T07:38:40;11.77;;;6.70;;
66587;SDS011;53446;50.076;8.198;2022-09-13T07:40:41;13.05;;;6.22;;
66587;SDS011;53446;50.076;8.198;2022-09-13T07:42:42;10.73;;;6.20;;
66587;SDS011;53446;50.076;8.198;2022-09-13T07:44:43;14.03;;;6.63;;
66587;SDS011;53446;50.076;8.198;2022-09-13T07:46:43;12.53;;;6.70;;
66587;SDS011;53446;50.076;8.198;2022-09-13T07:48:44;12.07;;;6.20;;
66587;SDS011;53446;50.076;8.198;2022-09-13T07:50:50;11.45;;;5.88;;
66587;SDS011;53446;50.076;8.198;2022-09-13T07:52:56;14.45;;;6.70;;
66587;SDS011;53446;50.076;8.198;2022-09-13T07:54:56;11.87;;;6.23;;
66587;SDS011;53446;50.076;8.198;2022-09-13T07:56:57;11.88;;;5.97;;
66587;SDS011;53446;50.076;8.198;2022-09-13T07:58:59;13.23;;;6.97;;
66587;SDS011;53446;50.076;8.198;2022-09-13T08:03:04;9.40;;;5.82;;
66587;SDS011;53446;50.076;8.198;2022-09-13T08:05:04;10.70;;;5.97;;
66587;SDS011;53446;50.076;8.198;2022-09-13T08:07:05;13.83;;;6.30;;
66587;SDS011;53446;50.076;8.198;2022-09-13T08:09:06;12.13;;;6.47;;
66587;SDS011;53446;50.076;8.198;2022-09-13T08:11:07;10.80;;;6.40;;
66587;SDS011;53446;50.076;8.198;2022-09-13T08:13:07;16.33;;;6.53;;
66587;SDS011;53446;50.076;8.198;2022-09-13T08:15:08;14.60;;;6.47;;
66587;SDS011;53446;50.076;8.198;2022-09-13T08:17:08;13.75;;;6.93;;
66587;SDS011;53446;50.076;8.198;2022-09-13T08:19:10;13.43;;;6.80;;
66587;SDS011;53446;50.076;8.198;2022-09-13T08:21:12;15.57;;;7.72;;
66587;SDS011;53446;50.076;8.198;2022-09-13T08:23:13;16.67;;;8.35;;
66587;SDS011;53446;50.076;8.198;2022-09-13T08:25:13;13.83;;;7.73;;
66587;SDS011;53446;50.076;8.198;2022-09-13T08:27:13;12.17;;;7.10;;
66587;SDS011;53446;50.076;8.198;2022-09-13T08:29:14;13.13;;;7.57;;
66587;SDS011;53446;50.076;8.198;2022-09-13T08:31:15;15.15;;;7.60;;
66587;SDS011;53446;50.076;8.198;2022-09-13T08:33:17;13.07;;;8.02;;
66587;SDS011;53446;50.076;8.198;2022-09-13T08:35:17;14.50;;;7.53;;
66587;SDS011;53446;50.076;8.198;2022-09-13T08:37:17;15.43;;;7.57;;
66587;SDS011;53446;50.076;8.198;2022-09-13T08:39:17;13.50;;;7.33;;
66587;SDS011;53446;50.076;8.198;2022-09-13T08:43:50;15.00;;;8.53;;
66587;SDS011;53446;50.076;8.198;2022-09-13T08:48:29;13.43;;;7.53;;
66587;SDS011;53446;50.076;8.198;2022-09-13T08:50:33;15.25;;;8.35;;
66587;SDS011;53446;50.076;8.198;2022-09-13T08:52:39;20.98;;;8.63;;
66587;SDS011;53446;50.076;8.198;2022-09-13T08:54:51;12.90;;;7.87;;
66587;SDS011;53446;50.076;8.198;2022-09-13T08:57:02;13.85;;;7.47;;
66587;SDS011;53446;50.076;8.198;2022-09-13T09:04:01;16.42;;;8.73;;
66587;SDS011;53446;50.076;8.198;2022-09-13T09:06:13;17.87;;;9.47;;
66587;SDS011;53446;50.076;8.198;2022-09-13T09:10:28;15.73;;;8.38;;
66587;SDS011;53446;50.076;8.198;2022-09-13T09:12:49;12.93;;;7.55;;
66587;SDS011;53446;50.076;8.198;2022-09-13T09:15:16;13.07;;;6.80;;
66587;SDS011;53446;50.076;8.198;2022-09-13T09:17:25;12.53;;;7.10;;
66587;SDS011;53446;50.076;8.198;2022-09-13T09:19:31;14.73;;;7.53;;
66587;SDS011;53446;50.076;8.198;2022-09-13T09:21:34;14.80;;;7.05;;
66587;SDS011;53446;50.076;8.198;2022-09-13T09:23:36;11.53;;;6.70;;
66587;SDS011;53446;50.076;8.198;2022-09-13T09:25:38;12.38;;;7.35;;
66587;SDS011;53446;50.076;8.198;2022-09-13T09:27:39;14.50;;;7.70;;
66587;SDS011;53446;50.076;8.198;2022-09-13T09:29:39;17.97;;;7.90;;
66587;SDS011;53446;50.076;8.198;2022-09-13T09:31:53;13.38;;;7.28;;
66587;SDS011;53446;50.076;8.198;2022-09-13T09:34:07;14.30;;;7.30;;
66587;SDS011;53446;50.076;8.198;2022-09-13T09:38:45;13.03;;;7.57;;
66587;SDS011;53446;50.076;8.198;2022-09-13T09:40:45;15.32;;;7.82;;
66587;SDS011;53446;50.076;8.198;2022-09-13T09:42:47;17.30;;;8.37;;
66587;SDS011;53446;50.076;8.198;2022-09-13T09:44:51;13.32;;;7.95;;
66587;SDS011;53446;50.076;8.198;2022-09-13T09:46:55;12.20;;;7.13;;
66587;SDS011;53446;50.076;8.198;2022-09-13T09:51:34;12.85;;;7.07;;
66587;SDS011;53446;50.076;8.198;2022-09-13T09:53:35;13.53;;;7.63;;
66587;SDS011;53446;50.076;8.198;2022-09-13T09:55:45;13.23;;;7.15;;
66587;SDS011;53446;50.076;8.198;2022-09-13T09:57:51;13.10;;;7.65;;
66587;SDS011;53446;50.076;8.198;2022-09-13T10:00:11;14.18;;;7.70;;
66587;SDS011;53446;50.076;8.198;2022-09-13T10:02:16;13.73;;;6.83;;
66587;SDS011;53446;50.076;8.198;2022-09-13T10:04:20;13.50;;;7.25;;
66587;SDS011;53446;50.076;8.198;2022-09-13T10:06:21;11.82;;;6.75;;
66587;SDS011;53446;50.076;8.198;2022-09-13T10:08:27;12.88;;;7.20;;
66587;SDS011;53446;50.076;8.198;2022-09-13T10:12:42;12.93;;;6.57;;
66587;SDS011;53446;50.076;8.198;2022-09-13T10:14:48;12.90;;;7.00;;
66587;SDS011;53446;50.076;8.198;2022-09-13T10:16:48;13.50;;;6.70;;
66587;SDS011;53446;50.076;8.198;2022-09-13T10:19:16;12.00;;;6.75;;
66587;SDS011;53446;50.076;8.198;2022-09-13T10:21:24;10.35;;;5.45;;
66587;SDS011;53446;50.076;8.198;2022-09-13T10:23:26;10.90;;;6.60;;
66587;SDS011;53446;50.076;8.198;2022-09-13T10:25:26;10.17;;;6.27;;
66587;SDS011;53446;50.076;8.198;2022-09-13T10:27:31;12.27;;;6.87;;
66587;SDS011;53446;50.076;8.198;2022-09-13T10:29:34;10.93;;;6.80;;
66587;SDS011;53446;50.076;8.198;2022-09-13T10:31:39;13.63;;;7.05;;
66587;SDS011;53446;50.076;8.198;2022-09-13T10:35:52;10.43;;;5.80;;
66587;SDS011;53446;50.076;8.198;2022-09-13T10:37:54;12.98;;;7.63;;
66587;SDS011;53446;50.076;8.198;2022-09-13T10:39:56;12.70;;;7.87;;
66587;SDS011;53446;50.076;8.198;2022-09-13T10:42:01;12.85;;;7.35;;
66587;SDS011;53446;50.076;8.198;2022-09-13T10:44:03;12.98;;;7.97;;
66587;SDS011;53446;50.076;8.198;2022-09-13T10:46:07;13.25;;;7.90;;
66587;SDS011;53446;50.076;8.198;2022-09-13T10:48:15;12.88;;;7.65;;
66587;SDS011;53446;50.076;8.198;2022-09-13T10:50:20;13.07;;;7.65;;
66587;SDS011;53446;50.076;8.198;2022-09-13T10:52:25;14.20;;;8.57;;
66587;SDS011;53446;50.076;8.198;2022-09-13T10:54:27;11.77;;;7.43;;
66587;SDS011;53446;50.076;8.198;2022-09-13T10:56:28;14.73;;;8.00;;
66587;SDS011;53446;50.076;8.198;2022-09-13T10:58:28;12.83;;;8.07;;
66587;SDS011;53446;50.076;8.198;2022-09-13T11:05:19;13.93;;;7.28;;
66587;SDS011;53446;50.076;8.198;2022-09-13T11:09:38;11.75;;;7.20;;
66587;SDS011;53446;50.076;8.198;2022-09-13T11:13:59;13.85;;;8.10;;
66587;SDS011;53446;50.076;8.198;2022-09-13T11:18:37;15.75;;;8.73;;
66587;SDS011;53446;50.076;8.198;2022-09-13T11:23:16;19.08;;;12.00;;
66587;SDS011;53446;50.076;8.198;2022-09-13T11:27:54;12.75;;;7.43;;
66587;SDS011;53446;50.076;8.198;2022-09-13T11:30:18;12.43;;;7.20;;
66587;SDS011;53446;50.076;8.198;2022-09-13T11:33:06;13.00;;;7.28;;
66587;SDS011;53446;50.076;8.198;2022-09-13T11:35:17;15.05;;;8.23;;
66587;SDS011;53446;50.076;8.198;2022-09-13T11:42:25;13.60;;;7.82;;
66587;SDS011;53446;50.076;8.198;2022-09-13T11:52:02;15.13;;;7.60;;
66587;SDS011;53446;50.076;8.198;2022-09-13T11:54:35;13.13;;;7.95;;
66587;SDS011;53446;50.076;8.198;2022-09-13T11:56:53;13.38;;;7.22;;
66587;SDS011;53446;50.076;8.198;2022-09-13T11:58:58;15.18;;;8.50;;
66587;SDS011;53446;50.076;8.198;2022-09-13T12:01:10;14.57;;;8.70;;
66587;SDS011;53446;50.076;8.198;2022-09-13T12:03:17;12.23;;;7.35;;
66587;SDS011;53446;50.076;8.198;2022-09-13T12:10:20;10.88;;;6.47;;
66587;SDS011;53446;50.076;8.198;2022-09-13T12:12:22;14.18;;;7.30;;
66587;SDS011;53446;50.076;8.198;2022-09-13T12:14:29;17.13;;;7.78;;
66587;SDS011;53446;50.076;8.198;2022-09-13T12:16:37;13.60;;;8.45;;
66587;SDS011;53446;50.076;8.198;2022-09-13T12:18:41;14.90;;;8.38;;
66587;SDS011;53446;50.076;8.198;2022-09-13T12:22:49;12.38;;;7.85;;
66587;SDS011;53446;50.076;8.198;2022-09-13T12:24:50;13.43;;;7.65;;
66587;SDS011;53446;50.076;8.198;2022-09-13T12:27:02;14.25;;;7.80;;
66587;SDS011;53446;50.076;8.198;2022-09-13T12:29:27;13.73;;;7.65;;
66587;SDS011;53446;50.076;8.198;2022-09-13T12:31:30;13.70;;;7.82;;
66587;SDS011;53446;50.076;8.198;2022-09-13T12:33:31;12.18;;;7.97;;
66587;SDS011;53446;50.076;8.198;2022-09-13T12:35:32;15.27;;;8.27;;
66587;SDS011;53446;50.076;8.198;2022-09-13T12:40:29;13.77;;;8.20;;
66587;SDS011;53446;50.076;8.198;2022-09-13T12:45:12;16.15;;;6.80;;
66587;SDS011;53446;50.076;8.198;2022-09-13T12:52:35;11.75;;;6.75;;
66587;SDS011;53446;50.076;8.198;2022-09-13T13:01:44;10.38;;;6.20;;
66587;SDS011;53446;50.076;8.198;2022-09-13T13:06:20;10.80;;;5.82;;
66587;SDS011;53446;50.076;8.198;2022-09-13T13:08:26;12.70;;;6.63;;
66587;SDS011;53446;50.076;8.198;2022-09-13T13:10:32;10.10;;;5.32;;
66587;SDS011;53446;50.076;8.198;2022-09-13T13:12:38;10.05;;;5.65;;
66587;SDS011;53446;50.076;8.198;2022-09-13T13:16:39;11.70;;;6.03;;
66587;SDS011;53446;50.076;8.198;2022-09-13T13:18:48;10.02;;;5.20;;
66587;SDS011;53446;50.076;8.198;2022-09-13T13:22:51;10.03;;;6.00;;
66587;SDS011;53446;50.076;8.198;2022-09-13T13:24:51;11.63;;;5.67;;
66587;SDS011;53446;50.076;8.198;2022-09-13T13:26:54;9.85;;;5.85;;
66587;SDS011;53446;50.076;8.198;2022-09-13T13:29:04;8.95;;;5.45;;
66587;SDS011;53446;50.076;8.198;2022-09-13T13:33:59;10.93;;;6.10;;
66587;SDS011;53446;50.076;8.198;2022-09-13T13:36:19;9.70;;;5.82;;
66587;SDS011;53446;50.076;8.198;2022-09-13T13:40:27;11.55;;;5.18;;
66587;SDS011;53446;50.076;8.198;2022-09-13T13:42:28;8.68;;;4.88;;
66587;SDS011;53446;50.076;8.198;2022-09-13T13:46:41;7.30;;;4.47;;
66587;SDS011;53446;50.076;8.198;2022-09-13T13:48:42;8.40;;;4.90;;
66587;SDS011;53446;50.076;8.198;2022-09-13T13:51:28;8.80;;;5.50;;
66587;SDS011;53446;50.076;8.198;2022-09-13T13:53:20;10.10;;;5.35;;
66587;SDS011;53446;50.076;8.198;2022-09-13T13:55:39;10.65;;;5.50;;
66587;SDS011;53446;50.076;8.198;2022-09-13T13:57:49;10.43;;;5.47;;
66587;SDS011;53446;50.076;8.198;2022-09-13T13:59:55;9.70;;;5.33;;
66587;SDS011;53446;50.076;8.198;2022-09-13T14:02:05;9.60;;;5.30;;
66587;SDS011;53446;50.076;8.198;2022-09-13T14:07:02;8.48;;;5.30;;
66587;SDS011;53446;50.076;8.198;2022-09-13T14:09:18;8.17;;;4.60;;
66587;SDS011;53446;50.076;8.198;2022-09-13T14:14:00;9.88;;;5.10;;
66587;SDS011;53446;50.076;8.198;2022-09-13T14:21:17;11.00;;;4.73;;
66587;SDS011;53446;50.076;8.198;2022-09-13T14:23:19;12.68;;;5.53;;
66587;SDS011;53446;50.076;8.198;2022-09-13T14:29:26;10.55;;;5.22;;
66587;SDS011;53446;50.076;8.198;2022-09-13T14:31:26;7.07;;;4.47;;
66587;SDS011;53446;50.076;8.198;2022-09-13T14:33:28;7.67;;;4.90;;
66587;SDS011;53446;50.076;8.198;2022-09-13T14:35:37;7.95;;;4.72;;
66587;SDS011;53446;50.076;8.198;2022-09-13T14:37:38;8.57;;;4.30;;
66587;SDS011;53446;50.076;8.198;2022-09-13T14:39:39;9.23;;;4.90;;
66587;SDS011;53446;50.076;8.198;2022-09-13T14:42:01;8.07;;;4.32;;
66587;SDS011;53446;50.076;8.198;2022-09-13T14:44:14;7.70;;;4.72;;
66587;SDS011;53446;50.076;8.198;2022-09-13T14:46:27;7.95;;;4.68;;
66587;SDS011;53446;50.076;8.198;2022-09-13T14:48:45;8.40;;;4.20;;
66587;SDS011;53446;50.076;8.198;2022-09-13T14:50:50;8.23;;;4.40;;
66587;SDS011;53446;50.076;8.198;2022-09-13T14:55:27;9.43;;;5.13;;